sensor_id;sensor_type;location;lat;lon;timestamp;P1;durP1;ratioP1;P2;durP2;ratioP2
75696;SDS011;64312;44.738;20.612;2023-03-13T00:02:08;24.90;;;13.55;;
75696;SDS011;64312;44.738;20.612;2023-03-13T00:04:34;30.35;;;14.35;;
75696;SDS011;64312;44.738;20.612;2023-03-13T00:07:00;28.98;;;13.73;;
75696;SDS011;64312;44.738;20.612;2023-03-13T00:09:25;29.45;;;13.85;;
75696;SDS011;64312;44.738;20.612;2023-03-13T00:11:51;23.02;;;11.80;;
75696;SDS011;64312;44.738;20.612;2023-03-13T00:14:17;27.70;;;14.27;;
75696;SDS011;64312;44.738;20.612;2023-03-13T00:16:43;24.73;;;11.60;;
75696;SDS011;64312;44.738;20.612;2023-03-13T00:19:08;22.48;;;12.35;;
75696;SDS011;64312;44.738;20.612;2023-03-13T00:21:35;23.92;;;11.80;;
75696;SDS011;64312;44.738;20.612;2023-03-13T00:24:05;37.97;;;17.95;;
75696;SDS011;64312;44.738;20.612;2023-03-13T00:26:32;37.42;;;17.95;;
75696;SDS011;64312;44.738;20.612;2023-03-13T00:28:57;33.47;;;16.42;;
75696;SDS011;64312;44.738;20.612;2023-03-13T00:31:25;33.63;;;15.70;;
75696;SDS011;64312;44.738;20.612;2023-03-13T00:33:53;25.75;;;13.70;;
75696;SDS011;64312;44.738;20.612;2023-03-13T00:36:26;31.67;;;15.20;;
75696;SDS011;64312;44.738;20.612;2023-03-13T00:38:54;41.38;;;20.80;;
75696;SDS011;64312;44.738;20.612;2023-03-13T00:41:21;33.97;;;16.48;;
75696;SDS011;64312;44.738;20.612;2023-03-13T00:43:48;29.38;;;15.52;;
75696;SDS011;64312;44.738;20.612;2023-03-13T00:46:16;29.15;;;13.75;;
75696;SDS011;64312;44.738;20.612;2023-03-13T00:48:44;29.98;;;13.77;;
75696;SDS011;64312;44.738;20.612;2023-03-13T00:51:11;30.35;;;14.27;;
75696;SDS011;64312;44.738;20.612;2023-03-13T00:53:38;28.20;;;13.13;;
75696;SDS011;64312;44.738;20.612;2023-03-13T00:56:08;26.65;;;12.68;;
75696;SDS011;64312;44.738;20.612;2023-03-13T00:58:36;28.63;;;14.35;;
75696;SDS011;64312;44.738;20.612;2023-03-13T01:01:07;29.90;;;14.77;;
75696;SDS011;64312;44.738;20.612;2023-03-13T01:03:46;32.10;;;13.85;;
75696;SDS011;64312;44.738;20.612;2023-03-13T01:06:14;26.17;;;13.07;;
75696;SDS011;64312;44.738;20.612;2023-03-13T01:08:42;32.80;;;15.20;;
75696;SDS011;64312;44.738;20.612;2023-03-13T01:11:16;24.17;;;13.52;;
75696;SDS011;64312;44.738;20.612;2023-03-13T01:13:44;28.35;;;13.20;;
75696;SDS011;64312;44.738;20.612;2023-03-13T01:16:18;25.15;;;12.98;;
75696;SDS011;64312;44.738;20.612;2023-03-13T01:18:49;23.55;;;11.95;;
75696;SDS011;64312;44.738;20.612;2023-03-13T01:21:18;45.63;;;19.85;;
75696;SDS011;64312;44.738;20.612;2023-03-13T01:23:44;50.08;;;21.45;;
75696;SDS011;64312;44.738;20.612;2023-03-13T01:26:10;50.45;;;22.75;;
75696;SDS011;64312;44.738;20.612;2023-03-13T01:28:37;40.15;;;19.75;;
75696;SDS011;64312;44.738;20.612;2023-03-13T01:31:13;37.30;;;18.50;;
75696;SDS011;64312;44.738;20.612;2023-03-13T01:33:41;31.45;;;15.48;;
75696;SDS011;64312;44.738;20.612;2023-03-13T01:36:07;29.77;;;14.35;;
75696;SDS011;64312;44.738;20.612;2023-03-13T01:38:33;30.33;;;13.93;;
75696;SDS011;64312;44.738;20.612;2023-03-13T01:40:59;24.13;;;13.43;;
75696;SDS011;64312;44.738;20.612;2023-03-13T01:43:26;30.13;;;14.35;;
75696;SDS011;64312;44.738;20.612;2023-03-13T01:46:13;25.60;;;12.93;;
75696;SDS011;64312;44.738;20.612;2023-03-13T01:49:10;24.85;;;12.40;;
75696;SDS011;64312;44.738;20.612;2023-03-13T01:51:57;25.08;;;11.07;;
75696;SDS011;64312;44.738;20.612;2023-03-13T01:57:35;20.85;;;11.30;;
75696;SDS011;64312;44.738;20.612;2023-03-13T02:00:04;29.20;;;14.20;;
75696;SDS011;64312;44.738;20.612;2023-03-13T02:02:38;28.48;;;12.80;;
75696;SDS011;64312;44.738;20.612;2023-03-13T02:05:07;24.23;;;11.93;;
75696;SDS011;64312;44.738;20.612;2023-03-13T02:07:38;24.67;;;11.10;;
75696;SDS011;64312;44.738;20.612;2023-03-13T02:10:07;26.13;;;11.55;;
75696;SDS011;64312;44.738;20.612;2023-03-13T02:12:36;24.42;;;11.82;;
75696;SDS011;64312;44.738;20.612;2023-03-13T02:15:06;31.65;;;11.93;;
75696;SDS011;64312;44.738;20.612;2023-03-13T02:17:47;25.98;;;11.35;;
75696;SDS011;64312;44.738;20.612;2023-03-13T02:20:16;19.48;;;10.63;;
75696;SDS011;64312;44.738;20.612;2023-03-13T02:22:53;19.98;;;10.20;;
75696;SDS011;64312;44.738;20.612;2023-03-13T02:25:29;23.48;;;10.85;;
75696;SDS011;64312;44.738;20.612;2023-03-13T02:28:08;20.35;;;9.60;;
75696;SDS011;64312;44.738;20.612;2023-03-13T02:30:40;20.60;;;9.80;;
75696;SDS011;64312;44.738;20.612;2023-03-13T02:33:08;20.00;;;10.38;;
75696;SDS011;64312;44.738;20.612;2023-03-13T02:35:35;20.92;;;10.20;;
75696;SDS011;64312;44.738;20.612;2023-03-13T02:38:05;20.02;;;10.00;;
75696;SDS011;64312;44.738;20.612;2023-03-13T02:40:36;21.05;;;10.27;;
75696;SDS011;64312;44.738;20.612;2023-03-13T02:43:08;15.52;;;8.63;;
75696;SDS011;64312;44.738;20.612;2023-03-13T02:45:39;23.38;;;10.18;;
75696;SDS011;64312;44.738;20.612;2023-03-13T02:48:05;14.73;;;8.80;;
75696;SDS011;64312;44.738;20.612;2023-03-13T02:50:31;12.57;;;7.15;;
75696;SDS011;64312;44.738;20.612;2023-03-13T02:52:59;14.50;;;7.22;;
75696;SDS011;64312;44.738;20.612;2023-03-13T02:55:30;15.70;;;8.07;;
75696;SDS011;64312;44.738;20.612;2023-03-13T02:57:59;14.32;;;7.63;;
75696;SDS011;64312;44.738;20.612;2023-03-13T03:00:27;13.20;;;7.28;;
75696;SDS011;64312;44.738;20.612;2023-03-13T03:02:53;17.02;;;9.00;;
75696;SDS011;64312;44.738;20.612;2023-03-13T03:05:20;19.02;;;10.13;;
75696;SDS011;64312;44.738;20.612;2023-03-13T03:07:47;21.63;;;9.73;;
75696;SDS011;64312;44.738;20.612;2023-03-13T03:10:14;21.00;;;10.10;;
75696;SDS011;64312;44.738;20.612;2023-03-13T03:12:40;23.35;;;10.70;;
75696;SDS011;64312;44.738;20.612;2023-03-13T03:15:06;30.88;;;15.43;;
75696;SDS011;64312;44.738;20.612;2023-03-13T03:17:34;30.83;;;15.02;;
75696;SDS011;64312;44.738;20.612;2023-03-13T03:19:59;23.08;;;11.52;;
75696;SDS011;64312;44.738;20.612;2023-03-13T03:22:25;26.13;;;11.32;;
75696;SDS011;64312;44.738;20.612;2023-03-13T03:24:51;23.63;;;11.38;;
75696;SDS011;64312;44.738;20.612;2023-03-13T03:27:17;19.08;;;11.27;;
75696;SDS011;64312;44.738;20.612;2023-03-13T03:29:48;25.05;;;12.05;;
75696;SDS011;64312;44.738;20.612;2023-03-13T03:32:14;18.77;;;10.75;;
75696;SDS011;64312;44.738;20.612;2023-03-13T03:34:40;24.83;;;11.90;;
75696;SDS011;64312;44.738;20.612;2023-03-13T03:37:06;24.00;;;11.45;;
75696;SDS011;64312;44.738;20.612;2023-03-13T03:39:31;21.13;;;11.43;;
75696;SDS011;64312;44.738;20.612;2023-03-13T03:41:57;23.02;;;11.82;;
75696;SDS011;64312;44.738;20.612;2023-03-13T03:44:24;24.70;;;11.23;;
75696;SDS011;64312;44.738;20.612;2023-03-13T03:46:56;22.80;;;11.18;;
75696;SDS011;64312;44.738;20.612;2023-03-13T03:49:24;23.88;;;11.23;;
75696;SDS011;64312;44.738;20.612;2023-03-13T03:51:50;22.42;;;10.10;;
75696;SDS011;64312;44.738;20.612;2023-03-13T03:54:21;19.77;;;10.18;;
75696;SDS011;64312;44.738;20.612;2023-03-13T03:56:48;21.45;;;10.23;;
75696;SDS011;64312;44.738;20.612;2023-03-13T03:59:13;21.85;;;10.15;;
75696;SDS011;64312;44.738;20.612;2023-03-13T04:01:45;20.80;;;10.65;;
75696;SDS011;64312;44.738;20.612;2023-03-13T04:04:14;17.95;;;10.00;;
75696;SDS011;64312;44.738;20.612;2023-03-13T04:06:43;16.10;;;8.77;;
75696;SDS011;64312;44.738;20.612;2023-03-13T04:09:09;18.00;;;8.70;;
75696;SDS011;64312;44.738;20.612;2023-03-13T04:11:36;16.60;;;8.57;;
75696;SDS011;64312;44.738;20.612;2023-03-13T04:14:03;17.80;;;8.13;;
75696;SDS011;64312;44.738;20.612;2023-03-13T04:16:30;17.73;;;8.48;;
75696;SDS011;64312;44.738;20.612;2023-03-13T04:18:55;16.90;;;7.80;;
75696;SDS011;64312;44.738;20.612;2023-03-13T04:21:23;14.23;;;7.80;;
75696;SDS011;64312;44.738;20.612;2023-03-13T04:23:55;18.75;;;9.07;;
75696;SDS011;64312;44.738;20.612;2023-03-13T04:26:21;17.92;;;8.50;;
75696;SDS011;64312;44.738;20.612;2023-03-13T04:28:48;20.27;;;8.48;;
75696;SDS011;64312;44.738;20.612;2023-03-13T04:31:18;18.25;;;9.10;;
75696;SDS011;64312;44.738;20.612;2023-03-13T04:33:56;17.73;;;9.13;;
75696;SDS011;64312;44.738;20.612;2023-03-13T04:36:40;19.38;;;8.82;;
75696;SDS011;64312;44.738;20.612;2023-03-13T04:39:31;16.08;;;8.00;;
75696;SDS011;64312;44.738;20.612;2023-03-13T04:45:01;23.15;;;10.82;;
75696;SDS011;64312;44.738;20.612;2023-03-13T04:47:45;23.33;;;10.20;;
75696;SDS011;64312;44.738;20.612;2023-03-13T04:50:27;21.38;;;11.23;;
75696;SDS011;64312;44.738;20.612;2023-03-13T04:53:06;20.73;;;9.23;;
75696;SDS011;64312;44.738;20.612;2023-03-13T04:55:42;21.98;;;9.95;;
75696;SDS011;64312;44.738;20.612;2023-03-13T04:58:40;22.70;;;10.38;;
75696;SDS011;64312;44.738;20.612;2023-03-13T05:01:26;19.75;;;9.95;;
75696;SDS011;64312;44.738;20.612;2023-03-13T05:04:12;17.67;;;9.07;;
75696;SDS011;64312;44.738;20.612;2023-03-13T05:07:05;18.48;;;9.77;;
75696;SDS011;64312;44.738;20.612;2023-03-13T05:09:58;16.38;;;8.30;;
75696;SDS011;64312;44.738;20.612;2023-03-13T05:12:29;21.52;;;8.27;;
75696;SDS011;64312;44.738;20.612;2023-03-13T05:15:11;18.02;;;8.98;;
75696;SDS011;64312;44.738;20.612;2023-03-13T05:17:51;16.50;;;8.57;;
75696;SDS011;64312;44.738;20.612;2023-03-13T05:20:39;16.80;;;7.43;;
75696;SDS011;64312;44.738;20.612;2023-03-13T05:23:25;16.73;;;8.15;;
75696;SDS011;64312;44.738;20.612;2023-03-13T05:26:06;15.77;;;7.82;;
75696;SDS011;64312;44.738;20.612;2023-03-13T05:28:59;17.63;;;8.48;;
75696;SDS011;64312;44.738;20.612;2023-03-13T05:31:48;20.63;;;10.98;;
75696;SDS011;64312;44.738;20.612;2023-03-13T05:34:32;22.73;;;11.68;;
75696;SDS011;64312;44.738;20.612;2023-03-13T05:37:24;26.55;;;12.73;;
75696;SDS011;64312;44.738;20.612;2023-03-13T05:39:50;25.25;;;12.48;;
75696;SDS011;64312;44.738;20.612;2023-03-13T05:42:35;20.35;;;11.57;;
75696;SDS011;64312;44.738;20.612;2023-03-13T05:45:19;21.55;;;11.38;;
75696;SDS011;64312;44.738;20.612;2023-03-13T05:47:46;20.08;;;10.60;;
75696;SDS011;64312;44.738;20.612;2023-03-13T05:50:12;23.60;;;11.57;;
75696;SDS011;64312;44.738;20.612;2023-03-13T05:52:56;22.52;;;12.73;;
75696;SDS011;64312;44.738;20.612;2023-03-13T05:55:41;25.13;;;12.25;;
75696;SDS011;64312;44.738;20.612;2023-03-13T05:58:26;21.08;;;11.63;;
75696;SDS011;64312;44.738;20.612;2023-03-13T06:01:09;17.85;;;9.55;;
75696;SDS011;64312;44.738;20.612;2023-03-13T06:03:59;20.15;;;10.85;;
75696;SDS011;64312;44.738;20.612;2023-03-13T06:06:25;18.65;;;9.57;;
75696;SDS011;64312;44.738;20.612;2023-03-13T06:08:53;16.25;;;9.20;;
75696;SDS011;64312;44.738;20.612;2023-03-13T06:11:21;15.13;;;9.15;;
75696;SDS011;64312;44.738;20.612;2023-03-13T06:13:46;13.77;;;7.70;;
75696;SDS011;64312;44.738;20.612;2023-03-13T06:16:25;17.50;;;8.48;;
75696;SDS011;64312;44.738;20.612;2023-03-13T06:18:55;16.17;;;8.32;;
75696;SDS011;64312;44.738;20.612;2023-03-13T06:21:21;18.92;;;10.30;;
75696;SDS011;64312;44.738;20.612;2023-03-13T06:23:47;20.05;;;10.25;;
75696;SDS011;64312;44.738;20.612;2023-03-13T06:26:13;23.98;;;11.48;;
75696;SDS011;64312;44.738;20.612;2023-03-13T06:28:39;25.10;;;11.68;;
75696;SDS011;64312;44.738;20.612;2023-03-13T06:31:05;25.00;;;11.20;;
75696;SDS011;64312;44.738;20.612;2023-03-13T06:33:31;20.20;;;10.35;;
75696;SDS011;64312;44.738;20.612;2023-03-13T06:35:59;22.45;;;10.27;;
75696;SDS011;64312;44.738;20.612;2023-03-13T06:38:25;21.80;;;11.15;;
75696;SDS011;64312;44.738;20.612;2023-03-13T06:40:51;18.42;;;9.70;;
75696;SDS011;64312;44.738;20.612;2023-03-13T06:43:17;22.38;;;11.20;;
75696;SDS011;64312;44.738;20.612;2023-03-13T06:45:43;32.97;;;15.77;;
75696;SDS011;64312;44.738;20.612;2023-03-13T06:48:09;33.60;;;17.85;;
75696;SDS011;64312;44.738;20.612;2023-03-13T06:50:38;36.65;;;18.05;;
75696;SDS011;64312;44.738;20.612;2023-03-13T06:53:04;36.97;;;16.13;;
75696;SDS011;64312;44.738;20.612;2023-03-13T06:55:30;36.60;;;19.08;;
75696;SDS011;64312;44.738;20.612;2023-03-13T06:57:56;54.95;;;23.63;;
75696;SDS011;64312;44.738;20.612;2023-03-13T07:00:22;54.30;;;25.60;;
75696;SDS011;64312;44.738;20.612;2023-03-13T07:02:47;61.33;;;26.20;;
75696;SDS011;64312;44.738;20.612;2023-03-13T07:05:14;54.30;;;24.95;;
75696;SDS011;64312;44.738;20.612;2023-03-13T07:07:40;54.72;;;23.30;;
75696;SDS011;64312;44.738;20.612;2023-03-13T07:10:07;51.28;;;23.67;;
75696;SDS011;64312;44.738;20.612;2023-03-13T07:12:35;43.92;;;20.60;;
75696;SDS011;64312;44.738;20.612;2023-03-13T07:15:01;39.97;;;17.20;;
75696;SDS011;64312;44.738;20.612;2023-03-13T07:17:26;33.03;;;16.35;;
75696;SDS011;64312;44.738;20.612;2023-03-13T07:19:52;32.05;;;16.55;;
75696;SDS011;64312;44.738;20.612;2023-03-13T07:22:18;32.45;;;16.20;;
75696;SDS011;64312;44.738;20.612;2023-03-13T07:24:43;29.83;;;16.15;;
75696;SDS011;64312;44.738;20.612;2023-03-13T07:27:09;43.15;;;20.02;;
75696;SDS011;64312;44.738;20.612;2023-03-13T07:29:34;43.30;;;20.58;;
75696;SDS011;64312;44.738;20.612;2023-03-13T07:32:00;39.92;;;20.48;;
75696;SDS011;64312;44.738;20.612;2023-03-13T07:34:26;33.83;;;18.65;;
75696;SDS011;64312;44.738;20.612;2023-03-13T07:36:51;34.35;;;17.05;;
75696;SDS011;64312;44.738;20.612;2023-03-13T07:39:17;34.85;;;17.98;;
75696;SDS011;64312;44.738;20.612;2023-03-13T07:41:43;30.30;;;17.50;;
75696;SDS011;64312;44.738;20.612;2023-03-13T07:44:14;30.23;;;15.88;;
75696;SDS011;64312;44.738;20.612;2023-03-13T07:46:40;18.35;;;10.60;;
75696;SDS011;64312;44.738;20.612;2023-03-13T07:49:05;13.90;;;8.25;;
75696;SDS011;64312;44.738;20.612;2023-03-13T07:51:31;11.18;;;6.50;;
75696;SDS011;64312;44.738;20.612;2023-03-13T07:53:57;12.20;;;6.30;;
75696;SDS011;64312;44.738;20.612;2023-03-13T07:56:23;8.85;;;4.97;;
75696;SDS011;64312;44.738;20.612;2023-03-13T07:58:49;8.05;;;4.65;;
75696;SDS011;64312;44.738;20.612;2023-03-13T08:01:19;10.63;;;4.90;;
75696;SDS011;64312;44.738;20.612;2023-03-13T08:03:47;8.63;;;5.00;;
75696;SDS011;64312;44.738;20.612;2023-03-13T08:06:17;11.00;;;6.13;;
75696;SDS011;64312;44.738;20.612;2023-03-13T08:08:45;11.80;;;5.80;;
75696;SDS011;64312;44.738;20.612;2023-03-13T08:13:38;12.13;;;6.32;;
75696;SDS011;64312;44.738;20.612;2023-03-13T08:16:12;10.13;;;5.20;;
75696;SDS011;64312;44.738;20.612;2023-03-13T08:18:41;9.57;;;4.95;;
75696;SDS011;64312;44.738;20.612;2023-03-13T08:21:14;8.38;;;4.22;;
75696;SDS011;64312;44.738;20.612;2023-03-13T08:23:42;9.68;;;5.25;;
75696;SDS011;64312;44.738;20.612;2023-03-13T08:26:09;9.48;;;4.60;;
75696;SDS011;64312;44.738;20.612;2023-03-13T08:28:37;9.27;;;4.57;;
75696;SDS011;64312;44.738;20.612;2023-03-13T08:31:09;8.85;;;4.68;;
75696;SDS011;64312;44.738;20.612;2023-03-13T08:33:39;7.00;;;3.88;;
75696;SDS011;64312;44.738;20.612;2023-03-13T08:36:17;8.25;;;3.95;;
75696;SDS011;64312;44.738;20.612;2023-03-13T08:38:51;7.43;;;3.85;;
75696;SDS011;64312;44.738;20.612;2023-03-13T08:41:21;7.55;;;4.10;;
75696;SDS011;64312;44.738;20.612;2023-03-13T08:43:50;6.22;;;3.55;;
75696;SDS011;64312;44.738;20.612;2023-03-13T08:46:17;6.45;;;3.72;;
75696;SDS011;64312;44.738;20.612;2023-03-13T08:48:42;5.95;;;3.53;;
75696;SDS011;64312;44.738;20.612;2023-03-13T08:51:09;5.57;;;3.47;;
75696;SDS011;64312;44.738;20.612;2023-03-13T08:53:37;4.90;;;3.10;;
75696;SDS011;64312;44.738;20.612;2023-03-13T08:56:04;5.35;;;3.20;;
75696;SDS011;64312;44.738;20.612;2023-03-13T08:58:30;5.32;;;3.15;;
75696;SDS011;64312;44.738;20.612;2023-03-13T09:01:30;6.72;;;3.70;;
75696;SDS011;64312;44.738;20.612;2023-03-13T09:03:49;7.57;;;4.28;;
75696;SDS011;64312;44.738;20.612;2023-03-13T09:06:15;6.15;;;3.70;;
75696;SDS011;64312;44.738;20.612;2023-03-13T09:08:42;4.97;;;3.55;;
75696;SDS011;64312;44.738;20.612;2023-03-13T09:11:09;4.63;;;2.90;;
75696;SDS011;64312;44.738;20.612;2023-03-13T09:13:38;4.90;;;3.20;;
75696;SDS011;64312;44.738;20.612;2023-03-13T09:16:10;4.75;;;2.97;;
75696;SDS011;64312;44.738;20.612;2023-03-13T09:18:38;4.93;;;2.95;;
75696;SDS011;64312;44.738;20.612;2023-03-13T09:21:05;5.88;;;2.83;;
75696;SDS011;64312;44.738;20.612;2023-03-13T09:23:33;3.90;;;2.70;;
75696;SDS011;64312;44.738;20.612;2023-03-13T09:25:58;4.93;;;2.80;;
75696;SDS011;64312;44.738;20.612;2023-03-13T09:28:25;4.53;;;2.30;;
75696;SDS011;64312;44.738;20.612;2023-03-13T09:30:51;6.03;;;3.08;;
75696;SDS011;64312;44.738;20.612;2023-03-13T09:33:18;4.40;;;2.70;;
75696;SDS011;64312;44.738;20.612;2023-03-13T09:35:45;4.68;;;3.10;;
75696;SDS011;64312;44.738;20.612;2023-03-13T09:38:15;4.25;;;2.13;;
75696;SDS011;64312;44.738;20.612;2023-03-13T09:40:52;3.67;;;2.25;;
75696;SDS011;64312;44.738;20.612;2023-03-13T09:48:50;4.05;;;2.30;;
75696;SDS011;64312;44.738;20.612;2023-03-13T09:51:25;5.55;;;2.50;;
75696;SDS011;64312;44.738;20.612;2023-03-13T09:56:59;3.72;;;2.50;;
75696;SDS011;64312;44.738;20.612;2023-03-13T09:59:36;2.78;;;1.98;;
75696;SDS011;64312;44.738;20.612;2023-03-13T10:02:20;5.03;;;2.63;;
75696;SDS011;64312;44.738;20.612;2023-03-13T10:04:55;4.13;;;2.45;;
75696;SDS011;64312;44.738;20.612;2023-03-13T10:07:26;5.03;;;2.80;;
75696;SDS011;64312;44.738;20.612;2023-03-13T10:09:52;4.47;;;2.42;;
75696;SDS011;64312;44.738;20.612;2023-03-13T10:12:19;4.13;;;2.58;;
75696;SDS011;64312;44.738;20.612;2023-03-13T10:17:35;4.55;;;3.00;;
75696;SDS011;64312;44.738;20.612;2023-03-13T10:25:29;4.95;;;3.08;;
75696;SDS011;64312;44.738;20.612;2023-03-13T10:28:03;4.05;;;2.78;;
75696;SDS011;64312;44.738;20.612;2023-03-13T10:30:30;4.75;;;2.88;;
75696;SDS011;64312;44.738;20.612;2023-03-13T10:35:33;4.15;;;2.55;;
75696;SDS011;64312;44.738;20.612;2023-03-13T10:38:19;5.93;;;2.78;;
75696;SDS011;64312;44.738;20.612;2023-03-13T10:40:56;4.25;;;2.60;;
75696;SDS011;64312;44.738;20.612;2023-03-13T10:43:23;3.35;;;2.20;;
75696;SDS011;64312;44.738;20.612;2023-03-13T10:45:50;3.30;;;2.42;;
75696;SDS011;64312;44.738;20.612;2023-03-13T10:50:49;3.80;;;2.30;;
75696;SDS011;64312;44.738;20.612;2023-03-13T10:55:56;3.92;;;2.38;;
75696;SDS011;64312;44.738;20.612;2023-03-13T11:01:24;4.28;;;2.78;;
75696;SDS011;64312;44.738;20.612;2023-03-13T11:03:51;5.00;;;2.90;;
75696;SDS011;64312;44.738;20.612;2023-03-13T11:06:22;4.65;;;2.30;;
75696;SDS011;64312;44.738;20.612;2023-03-13T11:08:59;4.78;;;2.63;;
75696;SDS011;64312;44.738;20.612;2023-03-13T11:11:26;4.57;;;2.40;;
75696;SDS011;64312;44.738;20.612;2023-03-13T11:13:59;3.47;;;2.40;;
75696;SDS011;64312;44.738;20.612;2023-03-13T11:16:41;4.40;;;2.70;;
75696;SDS011;64312;44.738;20.612;2023-03-13T11:19:32;4.22;;;2.60;;
75696;SDS011;64312;44.738;20.612;2023-03-13T11:27:42;3.05;;;2.17;;
75696;SDS011;64312;44.738;20.612;2023-03-13T11:30:14;3.70;;;2.45;;
75696;SDS011;64312;44.738;20.612;2023-03-13T11:33:00;3.72;;;2.33;;
75696;SDS011;64312;44.738;20.612;2023-03-13T11:35:49;4.00;;;2.45;;
75696;SDS011;64312;44.738;20.612;2023-03-13T11:38:32;3.92;;;2.10;;
75696;SDS011;64312;44.738;20.612;2023-03-13T11:46:46;2.83;;;2.15;;
75696;SDS011;64312;44.738;20.612;2023-03-13T11:49:43;4.22;;;2.10;;
75696;SDS011;64312;44.738;20.612;2023-03-13T11:52:33;2.75;;;1.70;;
75696;SDS011;64312;44.738;20.612;2023-03-13T12:00:39;3.22;;;1.73;;
75696;SDS011;64312;44.738;20.612;2023-03-13T12:03:16;4.32;;;2.42;;
75696;SDS011;64312;44.738;20.612;2023-03-13T12:05:54;4.28;;;2.58;;
75696;SDS011;64312;44.738;20.612;2023-03-13T12:13:27;4.05;;;2.60;;
75696;SDS011;64312;44.738;20.612;2023-03-13T12:15:57;4.65;;;3.15;;
75696;SDS011;64312;44.738;20.612;2023-03-13T12:21:05;7.20;;;3.90;;
75696;SDS011;64312;44.738;20.612;2023-03-13T12:31:42;3.88;;;2.25;;
75696;SDS011;64312;44.738;20.612;2023-03-13T12:34:33;2.83;;;2.20;;
75696;SDS011;64312;44.738;20.612;2023-03-13T12:37:20;3.33;;;2.35;;
75696;SDS011;64312;44.738;20.612;2023-03-13T12:40:09;5.75;;;2.97;;
75696;SDS011;64312;44.738;20.612;2023-03-13T12:45:29;4.90;;;3.10;;
75696;SDS011;64312;44.738;20.612;2023-03-13T12:53:12;7.07;;;3.58;;
75696;SDS011;64312;44.738;20.612;2023-03-13T12:56:16;5.78;;;3.65;;
75696;SDS011;64312;44.738;20.612;2023-03-13T13:01:38;5.30;;;3.13;;
75696;SDS011;64312;44.738;20.612;2023-03-13T13:04:10;5.00;;;3.35;;
75696;SDS011;64312;44.738;20.612;2023-03-13T13:09:32;5.22;;;3.42;;
75696;SDS011;64312;44.738;20.612;2023-03-13T13:25:01;7.68;;;3.85;;
75696;SDS011;64312;44.738;20.612;2023-03-13T13:30:38;4.35;;;2.75;;
75696;SDS011;64312;44.738;20.612;2023-03-13T13:35:46;8.60;;;3.40;;
75696;SDS011;64312;44.738;20.612;2023-03-13T13:38:34;5.78;;;3.25;;
75696;SDS011;64312;44.738;20.612;2023-03-13T13:46:26;5.22;;;3.10;;
75696;SDS011;64312;44.738;20.612;2023-03-13T13:51:34;4.78;;;2.70;;
75696;SDS011;64312;44.738;20.612;2023-03-13T13:54:29;7.68;;;3.58;;
75696;SDS011;64312;44.738;20.612;2023-03-13T13:56:59;5.87;;;3.30;;
75696;SDS011;64312;44.738;20.612;2023-03-13T13:59:50;4.47;;;3.08;;
75696;SDS011;64312;44.738;20.612;2023-03-13T14:04:51;5.50;;;3.70;;
75696;SDS011;64312;44.738;20.612;2023-03-13T14:10:18;3.90;;;2.60;;
75696;SDS011;64312;44.738;20.612;2023-03-13T14:12:53;4.78;;;3.30;;
75696;SDS011;64312;44.738;20.612;2023-03-13T14:18:45;5.38;;;3.55;;
75696;SDS011;64312;44.738;20.612;2023-03-13T14:21:13;7.45;;;4.97;;
75696;SDS011;64312;44.738;20.612;2023-03-13T14:23:48;7.13;;;5.05;;
75696;SDS011;64312;44.738;20.612;2023-03-13T14:26:18;7.93;;;4.55;;
75696;SDS011;64312;44.738;20.612;2023-03-13T14:29:00;6.82;;;3.88;;
75696;SDS011;64312;44.738;20.612;2023-03-13T14:31:31;5.40;;;3.25;;
75696;SDS011;64312;44.738;20.612;2023-03-13T14:34:02;5.50;;;2.80;;
75696;SDS011;64312;44.738;20.612;2023-03-13T14:36:29;5.18;;;2.97;;
75696;SDS011;64312;44.738;20.612;2023-03-13T14:39:19;4.82;;;3.25;;
75696;SDS011;64312;44.738;20.612;2023-03-13T14:42:00;4.72;;;3.22;;
75696;SDS011;64312;44.738;20.612;2023-03-13T14:44:28;6.82;;;3.90;;
75696;SDS011;64312;44.738;20.612;2023-03-13T14:46:59;5.57;;;3.60;;
75696;SDS011;64312;44.738;20.612;2023-03-13T14:49:29;5.63;;;3.70;;
75696;SDS011;64312;44.738;20.612;2023-03-13T14:52:06;4.95;;;3.20;;
75696;SDS011;64312;44.738;20.612;2023-03-13T14:54:55;4.03;;;2.60;;
75696;SDS011;64312;44.738;20.612;2023-03-13T14:57:26;6.15;;;3.50;;
75696;SDS011;64312;44.738;20.612;2023-03-13T15:00:23;6.68;;;4.00;;
75696;SDS011;64312;44.738;20.612;2023-03-13T15:02:47;5.32;;;3.38;;
75696;SDS011;64312;44.738;20.612;2023-03-13T15:05:31;5.20;;;3.22;;
75696;SDS011;64312;44.738;20.612;2023-03-13T15:07:57;5.55;;;3.70;;
75696;SDS011;64312;44.738;20.612;2023-03-13T15:12:50;5.68;;;3.13;;
75696;SDS011;64312;44.738;20.612;2023-03-13T15:15:16;5.05;;;3.42;;
75696;SDS011;64312;44.738;20.612;2023-03-13T15:17:43;5.70;;;3.38;;
75696;SDS011;64312;44.738;20.612;2023-03-13T15:20:09;4.82;;;3.60;;
75696;SDS011;64312;44.738;20.612;2023-03-13T15:22:38;5.45;;;3.42;;
75696;SDS011;64312;44.738;20.612;2023-03-13T15:25:25;5.65;;;3.67;;
75696;SDS011;64312;44.738;20.612;2023-03-13T15:27:51;5.22;;;3.80;;
75696;SDS011;64312;44.738;20.612;2023-03-13T15:30:18;5.35;;;3.92;;
75696;SDS011;64312;44.738;20.612;2023-03-13T15:32:47;6.50;;;3.97;;
75696;SDS011;64312;44.738;20.612;2023-03-13T15:37:57;5.53;;;3.30;;
75696;SDS011;64312;44.738;20.612;2023-03-13T15:40:24;4.72;;;3.20;;
75696;SDS011;64312;44.738;20.612;2023-03-13T15:42:52;5.22;;;3.15;;
75696;SDS011;64312;44.738;20.612;2023-03-13T15:45:18;5.57;;;3.83;;
75696;SDS011;64312;44.738;20.612;2023-03-13T15:47:45;6.13;;;3.88;;
75696;SDS011;64312;44.738;20.612;2023-03-13T15:50:12;9.85;;;4.55;;
75696;SDS011;64312;44.738;20.612;2023-03-13T15:52:40;7.30;;;4.63;;
75696;SDS011;64312;44.738;20.612;2023-03-13T15:55:06;37.65;;;19.83;;
75696;SDS011;64312;44.738;20.612;2023-03-13T15:57:32;30.38;;;16.95;;
75696;SDS011;64312;44.738;20.612;2023-03-13T16:00:00;21.77;;;13.68;;
75696;SDS011;64312;44.738;20.612;2023-03-13T16:02:29;13.90;;;9.07;;
75696;SDS011;64312;44.738;20.612;2023-03-13T16:04:55;12.55;;;7.32;;
75696;SDS011;64312;44.738;20.612;2023-03-13T16:07:20;9.40;;;6.25;;
75696;SDS011;64312;44.738;20.612;2023-03-13T16:09:46;8.93;;;5.70;;
75696;SDS011;64312;44.738;20.612;2023-03-13T16:12:12;10.15;;;5.80;;
75696;SDS011;64312;44.738;20.612;2023-03-13T16:14:38;8.05;;;5.45;;
75696;SDS011;64312;44.738;20.612;2023-03-13T16:17:15;9.23;;;5.53;;
75696;SDS011;64312;44.738;20.612;2023-03-13T16:19:43;8.02;;;4.82;;
75696;SDS011;64312;44.738;20.612;2023-03-13T16:22:10;8.50;;;4.80;;
75696;SDS011;64312;44.738;20.612;2023-03-13T16:24:36;8.07;;;4.93;;
75696;SDS011;64312;44.738;20.612;2023-03-13T16:27:07;51.53;;;20.48;;
75696;SDS011;64312;44.738;20.612;2023-03-13T16:29:36;66.82;;;28.17;;
75696;SDS011;64312;44.738;20.612;2023-03-13T16:32:01;47.63;;;20.52;;
75696;SDS011;64312;44.738;20.612;2023-03-13T16:34:27;35.10;;;15.38;;
75696;SDS011;64312;44.738;20.612;2023-03-13T16:36:52;25.23;;;11.50;;
75696;SDS011;64312;44.738;20.612;2023-03-13T16:39:18;19.83;;;9.40;;
75696;SDS011;64312;44.738;20.612;2023-03-13T16:41:43;15.50;;;7.80;;
75696;SDS011;64312;44.738;20.612;2023-03-13T16:44:09;16.00;;;7.65;;
75696;SDS011;64312;44.738;20.612;2023-03-13T16:46:35;10.82;;;5.13;;
75696;SDS011;64312;44.738;20.612;2023-03-13T16:49:03;11.63;;;5.25;;